Time;durP1;ratioP1;P1;durP2;ratioP2;P2;SDS_P1;SDS_P2;PMS_P1;PMS_P2;Temp;Humidity;BMP_temperature;BMP_pressure;BME280_temperature;BME280_humidity;BME280_pressure;Samples;Min_cycle;Max_cycle;Signal;HPM_P1;HPM_P2
2023/01/05 00:01:50;;;;;;;22.80;5.27;;;12.60;99.90;;;;;;5032967;28;20284;-86
2023/01/05 00:04:17;;;;;;;23.93;6.40;;;12.50;99.90;;;;;;5045255;28;20216;-86
2023/01/05 00:06:48;;;;;;;21.47;5.27;;;12.50;99.90;;;;;;5038965;28;20205;-88
2023/01/05 00:09:20;;;;;;;26.17;6.27;;;12.50;99.90;;;;;;5054274;28;20221;-86
2023/01/05 00:23:02;;;;;;;29.17;5.13;;;12.50;99.90;;;;;;5043255;28;20258;-88
2023/01/05 00:25:37;;;;;;;12.70;4.20;;;12.50;99.90;;;;;;5046615;28;20221;-86
2023/01/05 00:28:10;;;;;;;26.13;5.23;;;12.40;99.90;;;;;;5065092;28;20189;-88
2023/01/05 00:30:42;;;;;;;21.37;4.50;;;12.30;99.90;;;;;;5044366;28;20233;-88
2023/01/05 00:33:13;;;;;;;24.37;5.33;;;12.50;99.90;;;;;;5039863;28;20231;-87
2023/01/05 00:35:40;;;;;;;29.57;5.53;;;12.50;99.90;;;;;;5045792;28;20284;-87
2023/01/05 00:41:11;;;;;;;29.47;5.53;;;;;;;;;;5028172;28;20306;-87
2023/01/05 00:43:40;;;;;;;22.00;5.57;;;;;;;;;;5023026;28;20284;-87
2023/01/05 00:46:10;;;;;;;20.50;4.73;;;12.40;99.90;;;;;;5027525;28;20303;-86
2023/01/05 00:48:38;;;;;;;23.80;6.13;;;;;;;;;;5047994;28;20207;-87
2023/01/05 00:51:10;;;;;;;32.00;6.03;;;12.40;99.90;;;;;;5046491;28;20659;-88
2023/01/05 00:53:38;;;;;;;29.93;6.37;;;12.40;99.90;;;;;;5050634;28;20211;-88
2023/01/05 00:56:06;;;;;;;25.13;6.13;;;12.40;99.90;;;;;;5036569;28;20213;-88
2023/01/05 00:58:33;;;;;;;27.07;6.70;;;12.40;99.90;;;;;;5046882;28;20193;-87
2023/01/05 01:01:00;;;;;;;34.40;6.50;;;12.40;99.90;;;;;;5052716;28;20224;-88
2023/01/05 01:03:45;;;;;;;23.27;5.27;;;12.40;99.90;;;;;;5053392;28;20196;-87
2023/01/05 01:06:13;;;;;;;25.23;6.00;;;12.40;99.90;;;;;;5043086;28;20269;-88
2023/01/05 01:08:43;;;;;;;16.67;5.17;;;12.30;99.90;;;;;;5040461;28;20201;-87
2023/01/05 01:11:10;;;;;;;23.23;5.53;;;12.30;99.90;;;;;;5033751;28;20233;-86
2023/01/05 01:13:41;;;;;;;26.20;5.40;;;;;;;;;;5018802;28;20209;-87
2023/01/05 01:16:09;;;;;;;26.17;6.10;;;;;;;;;;5028356;28;20253;-86
2023/01/05 01:18:38;;;;;;;24.70;6.17;;;12.30;99.90;;;;;;5018578;28;20216;-86
2023/01/05 01:21:05;;;;;;;25.70;6.27;;;12.30;99.90;;;;;;5034253;28;20730;-87
2023/01/05 01:23:33;;;;;;;29.47;6.33;;;13.30;99.90;;;;;;5029269;28;20213;-87
2023/01/05 01:26:04;;;;;;;28.30;5.83;;;12.20;99.90;;;;;;5025222;28;20687;-87
2023/01/05 01:28:39;;;;;;;30.50;5.80;;;12.20;99.90;;;;;;5035099;28;20221;-87
2023/01/05 01:31:07;;;;;;;34.40;8.60;;;12.20;99.90;;;;;;5022847;28;20241;-86
2023/01/05 01:33:38;;;;;;;25.13;5.93;;;12.20;99.90;;;;;;5019995;28;20297;-87
2023/01/05 01:36:11;;;;;;;18.83;5.07;;;12.20;99.90;;;;;;5014488;28;20214;-86
2023/01/05 01:38:41;;;;;;;18.80;5.07;;;12.10;99.90;;;;;;5028798;28;20205;-87
2023/01/05 01:41:14;;;;;;;28.07;6.47;;;12.10;99.90;;;;;;5018260;28;20233;-86
2023/01/05 01:43:44;;;;;;;26.33;6.27;;;12.10;99.90;;;;;;5025319;28;20388;-86
2023/01/05 01:46:18;;;;;;;25.03;6.53;;;12.10;99.90;;;;;;5024653;28;20218;-86
2023/01/05 01:48:56;;;;;;;26.97;5.97;;;12.10;99.90;;;;;;5024406;28;20301;-86
2023/01/05 01:51:35;;;;;;;27.10;6.13;;;12.10;99.90;;;;;;5045756;28;20228;-86
2023/01/05 01:54:09;;;;;;;25.27;6.00;;;12.10;99.90;;;;;;5056869;28;20283;-86
2023/01/05 01:56:42;;;;;;;35.37;6.63;;;12.10;99.90;;;;;;5027009;28;20217;-86
2023/01/05 01:59:11;;;;;;;27.80;5.93;;;12.10;99.90;;;;;;5037485;28;20296;-86
2023/01/05 02:01:38;;;;;;;23.27;5.53;;;12.10;99.90;;;;;;5052980;28;20221;-87
2023/01/05 02:04:10;;;;;;;23.03;5.87;;;12.10;99.90;;;;;;5040675;28;20315;-86
2023/01/05 02:06:43;;;;;;;24.70;5.10;;;12.10;99.90;;;;;;5034163;28;20273;-87
2023/01/05 02:09:10;;;;;;;18.37;5.73;;;12.10;99.90;;;;;;5051596;28;20224;-87
2023/01/05 02:11:50;;;;;;;24.57;6.67;;;12.00;99.90;;;;;;5033879;28;20475;-87
2023/01/05 02:14:29;;;;;;;27.07;6.37;;;12.00;99.90;;;;;;5065212;28;20263;-86
2023/01/05 02:17:15;;;;;;;23.53;5.70;;;12.00;99.90;;;;;;5023880;28;20229;-85
2023/01/05 02:20:28;;;;;;;30.63;6.07;;;12.00;99.90;;;;;;5022916;28;20216;-86
2023/01/05 02:23:43;;;;;;;22.17;5.93;;;11.90;99.90;;;;;;5020254;28;20236;-87
2023/01/05 02:26:52;;;;;;;26.00;6.40;;;11.90;99.90;;;;;;5023417;28;20240;-87
2023/01/05 02:30:04;;;;;;;24.03;6.07;;;12.00;99.90;;;;;;5025010;28;20272;-86
2023/01/05 02:32:46;;;;;;;23.93;5.53;;;11.90;99.90;;;;;;5061700;28;20217;-87
2023/01/05 02:35:23;;;;;;;22.57;5.37;;;11.90;99.90;;;;;;5044889;28;20219;-88
2023/01/05 02:38:06;;;;;;;23.23;5.60;;;11.90;99.90;;;;;;5019490;28;20297;-87
2023/01/05 02:40:42;;;;;;;19.67;5.50;;;11.90;99.90;;;;;;5033019;28;20240;-86
2023/01/05 02:43:14;;;;;;;24.97;6.20;;;11.90;99.90;;;;;;5027002;28;20643;-86
2023/01/05 02:45:49;;;;;;;31.53;7.77;;;11.90;99.90;;;;;;5041969;28;20210;-86
2023/01/05 02:48:19;;;;;;;30.03;6.37;;;;;;;;;;5030097;28;20209;-87
2023/01/05 02:50:52;;;;;;;14.73;4.70;;;11.90;99.90;;;;;;5026814;28;20261;-87
2023/01/05 02:53:24;;;;;;;22.47;5.93;;;11.90;99.90;;;;;;5031720;28;20223;-87
2023/01/05 02:55:55;;;;;;;22.73;6.23;;;12.30;99.90;;;;;;5023958;28;20213;-87
2023/01/05 02:58:30;;;;;;;24.43;5.47;;;11.90;99.90;;;;;;5021216;28;20675;-87
2023/01/05 03:01:03;;;;;;;21.43;6.13;;;11.90;99.90;;;;;;5026100;28;20228;-87
2023/01/05 03:03:38;;;;;;;24.87;6.27;;;11.90;99.90;;;;;;5022560;28;20209;-86
2023/01/05 03:06:11;;;;;;;27.80;6.93;;;11.90;99.90;;;;;;5044843;28;20215;-87
2023/01/05 03:08:48;;;;;;;28.33;6.30;;;11.80;99.90;;;;;;5044813;28;20216;-86
2023/01/05 03:14:10;;;;;;;26.60;6.43;;;11.80;99.90;;;;;;5030690;28;20212;-87
2023/01/05 03:16:39;;;;;;;26.83;6.10;;;11.80;99.90;;;;;;5020836;28;20824;-87
2023/01/05 03:35:58;;;;;;;31.47;6.83;;;11.70;99.90;;;;;;5032902;28;20202;-87
2023/01/05 03:38:30;;;;;;;31.97;7.47;;;11.50;99.90;;;;;;5025003;28;20198;-87
2023/01/05 03:41:00;;;;;;;21.30;6.00;;;11.70;99.90;;;;;;5045549;28;20303;-87
2023/01/05 03:43:28;;;;;;;17.93;5.07;;;11.80;99.90;;;;;;5040205;28;20182;-87
2023/01/05 03:45:57;;;;;;;18.77;5.30;;;11.80;99.90;;;;;;5039231;28;20218;-87
2023/01/05 03:48:28;;;;;;;27.57;6.17;;;11.70;99.90;;;;;;5028713;28;20206;-87
2023/01/05 03:50:57;;;;;;;25.70;6.23;;;11.70;99.90;;;;;;5034311;28;20280;-87
2023/01/05 03:53:26;;;;;;;28.47;6.03;;;11.70;99.90;;;;;;5033253;28;20216;-87
2023/01/05 03:55:53;;;;;;;30.33;7.50;;;11.70;99.90;;;;;;5046740;28;20273;-87
2023/01/05 03:58:20;;;;;;;18.63;4.73;;;11.60;99.90;;;;;;5040336;28;20316;-87
2023/01/05 04:00:49;;;;;;;18.97;6.10;;;11.60;99.90;;;;;;5045471;28;20197;-87
2023/01/05 04:03:20;;;;;;;34.47;5.83;;;11.60;99.90;;;;;;5040184;28;20220;-87
2023/01/05 04:05:48;;;;;;;27.63;5.70;;;11.90;99.90;;;;;;5041574;28;20219;-86
2023/01/05 04:08:17;;;;;;;26.03;7.27;;;11.50;99.90;;;;;;5015425;28;20206;-87
2023/01/05 04:10:44;;;;;;;32.73;7.27;;;11.30;99.90;;;;;;5022295;28;20785;-87
2023/01/05 04:13:13;;;;;;;31.33;6.70;;;11.50;99.90;;;;;;5022454;28;20773;-87
2023/01/05 04:15:42;;;;;;;26.33;6.27;;;11.60;99.90;;;;;;5023458;28;20205;-87
2023/01/05 04:18:10;;;;;;;25.57;6.10;;;12.00;99.90;;;;;;5021454;28;20296;-87
2023/01/05 04:20:38;;;;;;;22.27;5.60;;;11.60;99.90;;;;;;5026717;28;20228;-87
2023/01/05 04:23:06;;;;;;;24.37;5.50;;;11.60;99.90;;;;;;5022657;28;20312;-87
2023/01/05 04:25:36;;;;;;;25.73;6.33;;;11.40;99.90;;;;;;5019872;28;20209;-87
2023/01/05 04:28:14;;;;;;;29.20;6.87;;;11.60;99.90;;;;;;5020710;28;20229;-87
2023/01/05 04:30:43;;;;;;;25.07;5.40;;;11.80;99.90;;;;;;5022977;28;20206;-88
2023/01/05 04:33:10;;;;;;;27.83;6.27;;;11.50;99.90;;;;;;5024731;28;20296;-85
2023/01/05 04:35:38;;;;;;;22.87;6.40;;;11.60;99.90;;;;;;5027285;28;20205;-85
2023/01/05 04:38:05;;;;;;;30.03;6.77;;;11.50;99.90;;;;;;5016694;28;20240;-88
2023/01/05 04:40:34;;;;;;;20.03;6.07;;;11.40;99.90;;;;;;5022424;28;20536;-87
2023/01/05 04:43:03;;;;;;;20.67;5.70;;;11.40;99.90;;;;;;5024497;28;20319;-87
2023/01/05 04:45:31;;;;;;;25.77;6.37;;;11.40;99.90;;;;;;5029969;28;20213;-86
2023/01/05 04:47:59;;;;;;;25.07;6.90;;;11.30;99.90;;;;;;5031110;28;20197;-87
2023/01/05 04:50:27;;;;;;;27.30;6.23;;;11.30;99.90;;;;;;5024452;28;20296;-87
2023/01/05 04:52:55;;;;;;;30.93;6.70;;;11.20;99.90;;;;;;5023109;28;20856;-87
2023/01/05 04:55:22;;;;;;;27.67;6.03;;;11.30;99.90;;;;;;5028340;28;20638;-87
2023/01/05 04:57:50;;;;;;;21.70;5.70;;;11.20;99.90;;;;;;5016863;28;20232;-87
2023/01/05 05:00:21;;;;;;;21.07;5.40;;;11.20;99.90;;;;;;5030465;28;20208;-87
2023/01/05 05:02:50;;;;;;;25.77;6.20;;;11.20;99.90;;;;;;5031550;28;20241;-87
2023/01/05 05:05:17;;;;;;;26.40;5.30;;;11.20;99.90;;;;;;5047647;28;20243;-87
2023/01/05 05:07:45;;;;;;;24.93;7.00;;;11.20;99.90;;;;;;5022340;28;20193;-86
2023/01/05 05:10:16;;;;;;;24.07;5.57;;;11.20;99.90;;;;;;5024632;28;20228;-84
2023/01/05 05:12:44;;;;;;;28.83;5.73;;;11.20;99.90;;;;;;5021059;28;20742;-86
2023/01/05 05:15:12;;;;;;;23.67;5.73;;;11.20;99.90;;;;;;5025857;28;20231;-86
2023/01/05 05:17:45;;;;;;;29.33;6.50;;;11.40;99.90;;;;;;5018383;28;20343;-86
2023/01/05 05:20:14;;;;;;;23.10;5.37;;;11.30;99.90;;;;;;5025745;28;20216;-86
2023/01/05 05:22:42;;;;;;;28.20;6.13;;;11.30;99.90;;;;;;5016595;28;20922;-86
2023/01/05 05:25:11;;;;;;;25.63;5.93;;;11.30;99.90;;;;;;5022015;28;20216;-85
2023/01/05 05:27:42;;;;;;;24.97;6.67;;;11.30;99.90;;;;;;5019879;28;20311;-86
2023/01/05 05:30:10;;;;;;;36.63;6.57;;;11.20;99.90;;;;;;5027902;28;20235;-86
2023/01/05 05:32:37;;;;;;;29.17;7.23;;;11.20;99.90;;;;;;5026005;28;20225;-86
2023/01/05 05:35:07;;;;;;;26.37;6.33;;;11.30;99.90;;;;;;5030487;28;20714;-85
2023/01/05 05:37:34;;;;;;;27.67;6.33;;;11.20;99.90;;;;;;5014629;28;20305;-86
2023/01/05 05:40:00;;;;;;;30.90;6.80;;;11.20;99.90;;;;;;5031208;28;20297;-86
2023/01/05 05:42:28;;;;;;;24.77;6.13;;;11.20;99.90;;;;;;5025315;28;20224;-87
2023/01/05 05:44:55;;;;;;;33.27;6.50;;;11.20;99.90;;;;;;5049751;28;20629;-86
2023/01/05 05:47:26;;;;;;;23.37;5.47;;;11.10;99.90;;;;;;5027819;28;20203;-86
2023/01/05 05:49:54;;;;;;;23.77;5.73;;;11.20;99.90;;;;;;5029420;28;20706;-86
2023/01/05 05:52:23;;;;;;;22.53;5.70;;;11.20;99.90;;;;;;5038311;28;20233;-86
2023/01/05 05:54:50;;;;;;;28.63;5.57;;;11.10;99.90;;;;;;5042013;28;20202;-85
2023/01/05 05:57:17;;;;;;;25.60;6.07;;;11.20;99.90;;;;;;5040497;28;20248;-86
2023/01/05 05:59:44;;;;;;;37.43;7.63;;;11.10;99.90;;;;;;5035934;28;20239;-86
2023/01/05 06:02:11;;;;;;;23.27;6.67;;;11.10;99.90;;;;;;5027082;28;20232;-86
2023/01/05 06:04:38;;;;;;;24.10;5.47;;;11.20;99.90;;;;;;5046187;28;20193;-86
2023/01/05 06:07:05;;;;;;;27.97;6.67;;;11.10;99.90;;;;;;5039862;28;20214;-85
2023/01/05 06:09:33;;;;;;;26.40;7.10;;;11.10;99.90;;;;;;5050803;28;20664;-86
2023/01/05 06:12:00;;;;;;;26.57;6.23;;;11.10;99.90;;;;;;5059853;28;20308;-87
2023/01/05 06:14:27;;;;;;;19.27;5.43;;;11.60;99.90;;;;;;5035257;28;20261;-86
2023/01/05 06:16:54;;;;;;;27.13;6.07;;;10.80;99.90;;;;;;5066470;28;20209;-86
2023/01/05 06:19:21;;;;;;;25.03;6.60;;;10.90;99.90;;;;;;5043933;28;20230;-86
2023/01/05 06:21:48;;;;;;;20.93;5.77;;;11.00;99.90;;;;;;5046918;28;20228;-86
2023/01/05 06:24:15;;;;;;;25.27;6.30;;;11.00;99.90;;;;;;5018405;28;20299;-86
2023/01/05 06:26:44;;;;;;;36.03;7.67;;;10.80;99.90;;;;;;5044713;28;20685;-86
2023/01/05 06:29:11;;;;;;;33.87;7.07;;;12.30;99.90;;;;;;5027300;28;20534;-86
2023/01/05 06:31:39;;;;;;;32.43;7.70;;;10.90;99.90;;;;;;5019689;28;20245;-86
2023/01/05 06:34:06;;;;;;;29.87;6.60;;;10.80;99.90;;;;;;5047356;28;20205;-85
2023/01/05 06:36:33;;;;;;;21.30;5.83;;;10.80;99.90;;;;;;5027074;28;20205;-85
2023/01/05 06:39:00;;;;;;;25.43;6.30;;;10.70;99.90;;;;;;5043099;28;20300;-86
2023/01/05 06:41:27;;;;;;;24.00;6.47;;;10.80;99.90;;;;;;5020042;28;20229;-86
2023/01/05 06:43:55;;;;;;;32.93;7.57;;;10.70;99.90;;;;;;5048892;28;20229;-85
2023/01/05 06:46:22;;;;;;;32.57;7.60;;;10.70;99.90;;;;;;5043749;28;20287;-84
2023/01/05 06:48:50;;;;;;;26.43;5.90;;;10.70;99.90;;;;;;5030757;28;20346;-86
2023/01/05 06:51:17;;;;;;;23.27;6.53;;;10.70;99.90;;;;;;5039365;28;20201;-87
2023/01/05 06:53:43;;;;;;;25.20;5.50;;;10.80;99.90;;;;;;5062237;28;20261;-86
2023/01/05 06:56:10;;;;;;;30.13;6.87;;;10.90;99.90;;;;;;5066096;28;20232;-86
2023/01/05 06:58:38;;;;;;;28.57;6.90;;;10.70;99.90;;;;;;5049675;28;20312;-86
2023/01/05 07:01:07;;;;;;;24.53;6.03;;;10.80;99.90;;;;;;5034079;28;20320;-87
2023/01/05 07:03:34;;;;;;;30.43;8.00;;;10.70;99.90;;;;;;5048317;28;20212;-86
2023/01/05 07:06:03;;;;;;;40.93;8.30;;;10.70;99.90;;;;;;5027964;28;20217;-86
2023/01/05 07:08:36;;;;;;;32.73;6.57;;;10.60;99.90;;;;;;5035184;28;20197;-85
2023/01/05 07:11:03;;;;;;;26.83;6.30;;;10.60;99.90;;;;;;5032305;28;20236;-85
2023/01/05 07:13:30;;;;;;;25.03;5.57;;;10.70;99.90;;;;;;5022820;28;20210;-85
2023/01/05 07:16:00;;;;;;;40.23;7.70;;;10.60;99.90;;;;;;5029223;28;20209;-88
2023/01/05 07:18:28;;;;;;;33.43;6.77;;;10.60;99.90;;;;;;5034606;28;20337;-88
2023/01/05 07:20:58;;;;;;;23.43;6.10;;;10.70;99.90;;;;;;5040860;28;20281;-87
2023/01/05 07:23:25;;;;;;;41.97;8.10;;;10.50;99.90;;;;;;5035106;28;20228;-85
2023/01/05 07:25:52;;;;;;;25.33;5.97;;;10.70;99.90;;;;;;5039058;28;20255;-86
2023/01/05 07:28:20;;;;;;;33.73;7.90;;;10.80;99.90;;;;;;5024104;28;20264;-85
2023/01/05 07:30:51;;;;;;;50.93;7.50;;;12.30;99.90;;;;;;5049419;28;20207;-87
2023/01/05 07:33:18;;;;;;;29.00;7.50;;;10.80;99.90;;;;;;5036227;28;20222;-86
2023/01/05 07:35:47;;;;;;;28.57;7.53;;;10.80;99.90;;;;;;5039472;28;20210;-86
2023/01/05 07:38:14;;;;;;;27.50;6.90;;;10.80;99.90;;;;;;5026088;28;20328;-88
2023/01/05 07:40:41;;;;;;;34.27;9.07;;;10.80;99.90;;;;;;5040871;28;20216;-88
2023/01/05 07:43:09;;;;;;;25.70;6.37;;;10.80;99.90;;;;;;5047825;28;20193;-84
2023/01/05 07:45:39;;;;;;;24.87;6.10;;;10.90;99.90;;;;;;5054123;28;20201;-84
2023/01/05 07:48:06;;;;;;;30.43;6.73;;;10.90;99.90;;;;;;5056022;28;20207;-84
2023/01/05 07:50:33;;;;;;;26.10;6.97;;;10.90;99.90;;;;;;5067194;28;20189;-84
2023/01/05 07:53:02;;;;;;;34.27;8.07;;;10.90;99.90;;;;;;5062810;28;20322;-84
2023/01/05 07:55:29;;;;;;;32.07;6.73;;;10.90;99.90;;;;;;5046043;28;20197;-85
2023/01/05 07:57:57;;;;;;;29.40;7.43;;;10.90;99.90;;;;;;5048366;28;20312;-84
2023/01/05 08:00:24;;;;;;;28.67;7.13;;;10.90;99.90;;;;;;5050305;28;20471;-85
2023/01/05 08:02:53;;;;;;;38.90;7.50;;;;;;;;;;5051863;28;20233;-82
2023/01/05 08:05:20;;;;;;;25.03;6.00;;;;;;;;;;5049867;28;20193;-84
2023/01/05 08:07:47;;;;;;;35.67;7.03;;;11.00;99.90;;;;;;5057094;28;20385;-83
2023/01/05 08:10:28;;;;;;;34.57;8.17;;;;;;;;;;5043050;28;20710;-85
2023/01/05 08:15:39;;;;;;;24.63;6.87;;;11.10;99.90;;;;;;5051150;28;20902;-84
2023/01/05 08:18:07;;;;;;;27.60;7.43;;;11.10;99.90;;;;;;5036916;28;20279;-86
2023/01/05 08:20:34;;;;;;;28.97;6.77;;;11.10;99.90;;;;;;5031054;28;20575;-84
2023/01/05 08:23:01;;;;;;;32.33;7.33;;;11.20;99.90;;;;;;5032919;28;20260;-85
2023/01/05 08:25:29;;;;;;;32.10;8.50;;;10.90;99.90;;;;;;5043253;28;20227;-85
2023/01/05 08:27:56;;;;;;;32.90;8.00;;;11.20;99.90;;;;;;5047601;28;20297;-84
2023/01/05 08:30:23;;;;;;;23.63;6.53;;;11.20;99.90;;;;;;5046349;28;20230;-83
2023/01/05 08:32:50;;;;;;;34.20;8.23;;;11.30;99.90;;;;;;5033645;28;20233;-85
2023/01/05 08:35:18;;;;;;;27.80;7.10;;;11.30;99.90;;;;;;5048776;28;20211;-84
2023/01/05 08:37:46;;;;;;;31.87;6.70;;;11.20;99.90;;;;;;5026558;28;20734;-86
2023/01/05 08:40:13;;;;;;;28.47;6.87;;;11.30;99.90;;;;;;5046156;28;20277;-85
2023/01/05 08:42:41;;;;;;;21.93;5.87;;;11.30;99.90;;;;;;5032609;28;20229;-85
2023/01/05 08:45:10;;;;;;;24.93;6.80;;;11.30;99.90;;;;;;5029478;28;20263;-84
2023/01/05 08:47:39;;;;;;;30.37;7.13;;;11.30;99.90;;;;;;5032450;28;20213;-85
2023/01/05 08:50:08;;;;;;;29.27;7.47;;;11.30;99.90;;;;;;5033115;28;20213;-86
2023/01/05 08:52:36;;;;;;;28.10;7.73;;;;;;;;;;5047886;28;20659;-84
2023/01/05 08:55:03;;;;;;;29.50;7.37;;;11.40;99.90;;;;;;5046441;28;20242;-85
2023/01/05 08:57:30;;;;;;;30.07;6.77;;;11.30;99.90;;;;;;5060129;28;20225;-84
2023/01/05 09:00:02;;;;;;;25.93;6.13;;;11.30;99.90;;;;;;5042629;28;20236;-85
2023/01/05 09:02:30;;;;;;;29.67;6.93;;;11.30;99.90;;;;;;5055905;28;20229;-84
2023/01/05 09:04:57;;;;;;;35.93;8.13;;;11.40;99.90;;;;;;5029334;28;20237;-85
2023/01/05 09:07:27;;;;;;;36.17;7.97;;;11.40;99.90;;;;;;5019942;28;20209;-87
2023/01/05 09:09:54;;;;;;;37.00;8.37;;;11.50;99.90;;;;;;5014732;28;20232;-85
2023/01/05 09:12:21;;;;;;;35.97;7.53;;;11.50;99.90;;;;;;5046761;28;20212;-84
2023/01/05 09:14:48;;;;;;;33.83;7.03;;;11.50;99.90;;;;;;5020888;28;20239;-85
2023/01/05 09:17:16;;;;;;;55.43;9.00;;;11.60;99.90;;;;;;5039719;28;20205;-85
2023/01/05 09:19:43;;;;;;;40.77;7.40;;;11.60;99.90;;;;;;5031476;28;20227;-85
2023/01/05 09:22:11;;;;;;;41.33;8.17;;;11.60;99.90;;;;;;5040192;28;20726;-85
2023/01/05 09:24:38;;;;;;;30.63;7.60;;;11.60;99.90;;;;;;5027318;28;20650;-85
2023/01/05 09:27:06;;;;;;;27.37;7.10;;;11.70;99.90;;;;;;5020184;28;20268;-84
2023/01/05 09:29:33;;;;;;;40.13;8.90;;;11.70;99.90;;;;;;5014692;28;20284;-85
2023/01/05 09:32:00;;;;;;;37.23;8.03;;;11.90;99.90;;;;;;5020533;28;20237;-85
2023/01/05 09:34:29;;;;;;;44.97;8.40;;;11.60;99.90;;;;;;5050615;28;20233;-85
2023/01/05 09:36:56;;;;;;;34.50;6.60;;;11.80;99.90;;;;;;5040939;28;20386;-84
2023/01/05 09:39:23;;;;;;;32.57;7.03;;;11.80;99.90;;;;;;5038359;28;20229;-84
2023/01/05 09:41:52;;;;;;;33.27;7.57;;;11.80;99.90;;;;;;5045294;28;20235;-83
2023/01/05 09:44:29;;;;;;;36.53;7.80;;;11.90;99.90;;;;;;5016156;28;20217;-84
2023/01/05 09:47:03;;;;;;;33.77;8.53;;;11.90;99.90;;;;;;5019626;28;20555;-85
2023/01/05 09:49:38;;;;;;;39.07;7.33;;;11.90;99.90;;;;;;5042571;28;20185;-85
2023/01/05 09:52:11;;;;;;;40.67;7.43;;;11.80;99.90;;;;;;5044728;28;20323;-85
2023/01/05 09:54:41;;;;;;;28.63;7.27;;;12.10;99.90;;;;;;5030545;28;20284;-85
2023/01/05 09:57:17;;;;;;;35.63;7.87;;;11.90;99.90;;;;;;5037418;28;20785;-85
2023/01/05 09:59:51;;;;;;;39.57;7.67;;;11.90;99.90;;;;;;5020385;28;20280;-84
2023/01/05 10:02:25;;;;;;;30.53;7.80;;;11.90;99.90;;;;;;5042483;28;20225;-86
2023/01/05 10:04:57;;;;;;;41.70;9.80;;;11.90;99.90;;;;;;5043182;28;20185;-85
2023/01/05 10:07:34;;;;;;;33.50;7.47;;;12.00;99.90;;;;;;5051567;28;20181;-85
2023/01/05 10:10:08;;;;;;;36.13;6.60;;;12.00;99.90;;;;;;5071370;28;20224;-85
2023/01/05 10:15:32;;;;;;;32.20;7.17;;;12.20;99.90;;;;;;5048917;28;20205;-86
2023/01/05 10:18:02;;;;;;;35.07;7.80;;;12.20;99.90;;;;;;5050929;28;20612;-86
2023/01/05 10:20:42;;;;;;;38.03;7.87;;;12.30;99.90;;;;;;5076066;28;20205;-85
2023/01/05 10:23:21;;;;;;;27.37;7.30;;;12.30;99.90;;;;;;5066422;28;20213;-86
2023/01/05 10:25:54;;;;;;;34.30;7.90;;;12.30;99.90;;;;;;5052839;28;20331;-85
2023/01/05 10:56:15;;;;;;;33.73;7.93;;;;;;;;;;4778454;29;20879;-86
2023/01/05 10:58:45;;;;;;;33.20;7.43;;;12.80;99.90;;;;;;4832600;29;20232;-85
2023/01/05 11:01:26;;;;;;;47.40;7.80;;;12.90;99.90;;;;;;4894303;28;20264;-85
2023/01/05 11:04:04;;;;;;;30.20;6.77;;;12.90;99.90;;;;;;4963115;28;20252;-85
2023/01/05 11:06:34;;;;;;;28.33;6.83;;;12.90;99.90;;;;;;4973761;28;20263;-85
2023/01/05 11:09:17;;;;;;;22.77;5.77;;;12.90;99.90;;;;;;5008866;28;20563;-85
2023/01/05 11:11:53;;;;;;;23.37;5.47;;;12.90;99.90;;;;;;5040413;28;20651;-84
2023/01/05 11:14:22;;;;;;;29.23;6.93;;;12.80;99.90;;;;;;5044957;28;20213;-85
2023/01/05 11:16:52;;;;;;;29.80;7.33;;;12.80;99.90;;;;;;5022222;28;20201;-86
2023/01/05 11:19:30;;;;;;;23.87;5.43;;;12.80;99.90;;;;;;5042208;28;20230;-87
2023/01/05 11:21:57;;;;;;;27.80;6.57;;;12.90;99.90;;;;;;5048817;28;20221;-86
2023/01/05 11:24:30;;;;;;;27.50;6.90;;;12.90;99.90;;;;;;5028101;28;20247;-86
2023/01/05 11:26:58;;;;;;;30.57;6.60;;;13.00;99.90;;;;;;5044409;28;20289;-86
2023/01/05 11:29:27;;;;;;;36.53;6.83;;;13.10;99.90;;;;;;5027529;28;20202;-87
2023/01/05 11:31:58;;;;;;;24.17;5.57;;;13.10;99.90;;;;;;5042107;28;20221;-88
2023/01/05 11:34:44;;;;;;;23.57;5.33;;;13.10;99.90;;;;;;5072595;28;20205;-90
2023/01/05 11:37:25;;;;;;;28.10;6.10;;;13.20;99.90;;;;;;5022406;28;20216;-87
2023/01/05 11:39:54;;;;;;;24.80;6.20;;;13.20;99.90;;;;;;5021750;28;20227;-87
2023/01/05 11:42:31;;;;;;;33.47;7.00;;;13.20;99.90;;;;;;5019700;28;20714;-87
2023/01/05 11:48:19;;;;;;;24.90;6.73;;;13.30;99.90;;;;;;5026824;28;20219;-87
2023/01/05 11:50:49;;;;;;;28.80;7.37;;;13.30;99.90;;;;;;5023898;28;20297;-83
2023/01/05 11:53:25;;;;;;;29.20;6.83;;;14.30;99.90;;;;;;5040966;28;20679;-83
2023/01/05 11:56:03;;;;;;;25.87;6.83;;;13.40;99.90;;;;;;5045849;28;20232;-83
2023/01/05 11:58:35;;;;;;;27.10;5.77;;;13.30;99.90;;;;;;5027869;28;20667;-83
2023/01/05 12:01:50;;;;;;;26.77;6.13;;;13.30;99.90;;;;;;5033104;28;20265;-83
2023/01/05 12:04:43;;;;;;;33.97;7.77;;;13.30;99.90;;;;;;5020333;28;20222;-83
2023/01/05 12:07:22;;;;;;;23.73;5.80;;;13.40;99.90;;;;;;5029120;28;20236;-83
2023/01/05 12:09:57;;;;;;;28.67;6.63;;;13.50;99.90;;;;;;5048117;28;20213;-83
2023/01/05 12:12:40;;;;;;;27.80;6.17;;;13.50;99.90;;;;;;5032613;28;20305;-81
2023/01/05 12:15:49;;;;;;;24.03;6.40;;;13.50;99.90;;;;;;5032730;28;20231;-83
2023/01/05 12:18:36;;;;;;;29.80;6.70;;;13.50;99.90;;;;;;5015938;28;20671;-83
2023/01/05 12:21:13;;;;;;;28.40;6.90;;;13.30;99.90;;;;;;5038701;28;20198;-83
2023/01/05 12:23:57;;;;;;;30.13;5.83;;;13.30;99.90;;;;;;5038314;28;20220;-83
2023/01/05 12:26:27;;;;;;;15.43;4.47;;;13.20;99.90;;;;;;5049437;28;20250;-83
2023/01/05 12:29:16;;;;;;;22.53;5.87;;;13.20;99.90;;;;;;5023868;28;20212;-83
2023/01/05 12:32:10;;;;;;;30.97;7.20;;;13.20;99.90;;;;;;5037825;28;20242;-83
2023/01/05 12:35:01;;;;;;;24.50;5.87;;;13.30;99.90;;;;;;5025776;28;20210;-84
2023/01/05 12:37:42;;;;;;;32.60;6.33;;;13.40;99.90;;;;;;5020006;28;20607;-83
2023/01/05 12:40:26;;;;;;;29.43;7.27;;;13.40;99.90;;;;;;5024036;28;20214;-83
2023/01/05 12:43:00;;;;;;;38.13;7.87;;;13.40;99.90;;;;;;5049949;28;20312;-83
2023/01/05 12:45:51;;;;;;;31.23;6.93;;;13.30;99.90;;;;;;5041722;28;20202;-83
2023/01/05 12:48:25;;;;;;;33.77;7.33;;;13.30;99.90;;;;;;5042745;28;20240;-83
2023/01/05 12:50:58;;;;;;;38.57;8.07;;;13.30;99.90;;;;;;5048043;28;20220;-83
2023/01/05 12:53:37;;;;;;;27.93;7.63;;;13.30;99.90;;;;;;5025007;28;20216;-83
2023/01/05 12:56:14;;;;;;;34.73;7.73;;;13.30;99.90;;;;;;5032306;28;20211;-83
2023/01/05 12:58:48;;;;;;;27.60;6.53;;;13.30;99.90;;;;;;5042711;28;20240;-83
2023/01/05 13:01:21;;;;;;;29.77;6.57;;;13.40;99.90;;;;;;5015691;28;20229;-82
2023/01/05 13:03:54;;;;;;;41.00;8.47;;;13.50;99.90;;;;;;5037404;28;20212;-82
2023/01/05 13:06:23;;;;;;;31.33;7.83;;;13.60;99.90;;;;;;5049186;28;20301;-83
2023/01/05 13:08:55;;;;;;;28.00;6.83;;;12.90;99.90;;;;;;5040666;28;20248;-81
2023/01/05 13:11:27;;;;;;;25.97;6.53;;;13.70;99.90;;;;;;5017750;28;20308;-82
2023/01/05 13:13:58;;;;;;;25.93;7.47;;;13.60;99.90;;;;;;5042091;28;20254;-81
2023/01/05 13:16:28;;;;;;;19.77;5.97;;;13.50;99.90;;;;;;5043242;28;20558;-82
2023/01/05 13:19:05;;;;;;;30.77;6.13;;;13.30;99.90;;;;;;5021147;28;20319;-82
2023/01/05 13:21:33;;;;;;;20.03;5.63;;;13.20;99.90;;;;;;5035938;28;20702;-83
2023/01/05 13:24:06;;;;;;;32.03;8.03;;;13.10;99.90;;;;;;5039534;28;20929;-83
2023/01/05 13:26:37;;;;;;;23.57;6.67;;;13.10;99.90;;;;;;5044114;28;20205;-83
2023/01/05 13:29:04;;;;;;;31.00;6.90;;;13.10;99.90;;;;;;5047991;28;20211;-83
2023/01/05 13:31:54;;;;;;;34.23;7.47;;;13.10;99.90;;;;;;5038917;28;20221;-82
2023/01/05 13:34:44;;;;;;;32.13;7.70;;;13.00;99.90;;;;;;5031245;28;20219;-83
2023/01/05 13:37:54;;;;;;;31.00;7.93;;;13.00;99.90;;;;;;5041045;28;20206;-83
2023/01/05 13:40:50;;;;;;;23.00;6.37;;;13.00;99.90;;;;;;4990527;28;20741;-82
2023/01/05 13:43:58;;;;;;;29.53;8.43;;;12.90;99.90;;;;;;5018147;28;20216;-83
2023/01/05 13:47:01;;;;;;;39.27;9.33;;;13.00;99.90;;;;;;5043631;28;20206;-82
2023/01/05 13:49:51;;;;;;;24.10;7.37;;;13.00;99.90;;;;;;5040231;28;20197;-82
2023/01/05 13:52:27;;;;;;;32.80;7.90;;;13.10;99.90;;;;;;5018917;28;20242;-83
2023/01/05 13:55:00;;;;;;;24.13;6.87;;;13.10;99.90;;;;;;5041176;28;20202;-82
2023/01/05 13:57:29;;;;;;;21.10;6.87;;;13.10;99.90;;;;;;5038538;28;20207;-82
2023/01/05 14:00:02;;;;;;;27.00;7.30;;;13.10;99.90;;;;;;5033348;28;20222;-83
2023/01/05 14:02:41;;;;;;;24.40;6.37;;;13.20;99.90;;;;;;5044183;28;20583;-82
2023/01/05 14:05:22;;;;;;;31.07;7.40;;;13.00;99.90;;;;;;5024999;28;20214;-84
2023/01/05 14:07:49;;;;;;;32.67;8.07;;;13.00;99.90;;;;;;5017685;28;20277;-84
2023/01/05 14:10:23;;;;;;;22.93;6.23;;;12.90;99.90;;;;;;5054471;28;20212;-83
2023/01/05 14:12:53;;;;;;;32.63;8.03;;;12.90;99.90;;;;;;5059787;28;20244;-84
2023/01/05 14:15:45;;;;;;;34.23;8.17;;;12.90;99.90;;;;;;5023474;28;20271;-83
2023/01/05 14:18:13;;;;;;;33.27;7.90;;;12.90;99.90;;;;;;5045844;28;20343;-83